createdAt,value
2019-05-06T00:00:20.464Z,3.43
2019-05-06T00:02:24.536Z,4.15
2019-05-06T00:04:26.568Z,2.40
2019-05-06T00:06:29.959Z,4.00
2019-05-06T00:08:34.579Z,4.95
2019-05-06T00:10:36.874Z,5.97
2019-05-06T00:12:40.512Z,2.07
2019-05-06T00:14:43.640Z,4.13
2019-05-06T00:16:46.617Z,6.73
2019-05-06T00:18:49.291Z,2.50
2019-05-06T00:20:54.825Z,2.20
2019-05-06T00:23:14.227Z,2.33
2019-05-06T00:25:25.691Z,4.32
2019-05-06T00:27:29.055Z,3.13
2019-05-06T00:29:34.981Z,3.00
2019-05-06T00:31:35.824Z,4.85
2019-05-06T00:33:38.443Z,4.22
2019-05-06T00:35:41.218Z,4.15
2019-05-06T00:37:44.687Z,6.47
2019-05-06T00:39:54.944Z,7.00
2019-05-06T00:42:03.888Z,3.55
2019-05-06T00:44:05.959Z,6.70
2019-05-06T00:46:08.561Z,4.97
2019-05-06T00:48:11.200Z,2.17
2019-05-06T00:50:14.247Z,5.32
2019-05-06T00:52:16.455Z,3.55
2019-05-06T00:54:20.008Z,4.82
2019-05-06T00:56:24.306Z,10.70
2019-05-06T00:58:26.193Z,4.10
2019-05-06T01:00:28.824Z,8.13
2019-05-06T01:02:31.544Z,4.97
2019-05-06T01:04:34.152Z,2.70
2019-05-06T01:06:37.469Z,5.63
2019-05-06T01:08:40.200Z,10.63
2019-05-06T01:10:44.971Z,2.78
2019-05-06T01:12:48.363Z,4.90
2019-05-06T01:14:50.996Z,3.90
2019-05-06T01:16:54.868Z,4.35
2019-05-06T01:18:57.884Z,2.78
2019-05-06T01:21:14.240Z,3.37
2019-05-06T01:23:14.547Z,3.30
2019-05-06T01:25:17.258Z,12.68
2019-05-06T01:27:19.901Z,8.63
2019-05-06T01:29:24.122Z,2.92
2019-05-06T01:31:39.523Z,8.57
2019-05-06T01:33:28.469Z,5.40
2019-05-06T01:35:31.036Z,6.53
2019-05-06T01:37:34.737Z,4.50
2019-05-06T01:39:36.167Z,6.35
2019-05-06T01:41:44.716Z,7.87
2019-05-06T01:43:45.816Z,4.43
2019-05-06T01:45:48.508Z,5.97
2019-05-06T01:47:51.071Z,8.63
2019-05-06T01:49:53.891Z,5.65
2019-05-06T01:51:56.197Z,4.43
2019-05-06T01:53:58.792Z,5.70
2019-05-06T01:56:03.584Z,8.00
2019-05-06T01:58:05.119Z,9.60
2019-05-06T02:00:06.584Z,3.92
2019-05-06T02:02:09.207Z,3.92
2019-05-06T02:04:13.651Z,4.37
2019-05-06T02:06:14.358Z,5.12
2019-05-06T02:08:16.911Z,3.40
2019-05-06T02:10:19.479Z,3.90
2019-05-06T02:12:24.415Z,4.70
2019-05-06T02:14:25.440Z,2.53
2019-05-06T02:16:27.988Z,3.80
2019-05-06T02:18:31.148Z,5.43
2019-05-06T02:20:35.308Z,4.95
2019-05-06T02:22:41.099Z,3.80
2019-05-06T02:24:44.468Z,5.70
2019-05-06T02:26:47.128Z,3.63
2019-05-06T02:28:50.202Z,4.72
2019-05-06T02:30:58.535Z,5.07
2019-05-06T02:33:15.395Z,2.40
2019-05-06T02:35:19.296Z,3.33
2019-05-06T02:37:25.487Z,2.80
2019-05-06T02:39:27.791Z,10.97
2019-05-06T02:41:33.483Z,5.90
2019-05-06T02:43:34.630Z,10.13
2019-05-06T02:45:36.636Z,4.07
2019-05-06T02:47:39.204Z,3.90
2019-05-06T02:49:44.216Z,5.35
2019-05-06T02:51:45.133Z,3.03
2019-05-06T02:53:47.733Z,4.68
2019-05-06T02:55:52.885Z,6.78
2019-05-06T02:57:53.864Z,3.42
2019-05-06T02:59:55.882Z,5.30
2019-05-06T03:01:59.095Z,9.45
2019-05-06T03:04:04.433Z,6.30
2019-05-06T03:06:04.541Z,5.32
2019-05-06T03:08:07.651Z,2.78
2019-05-06T03:10:14.627Z,7.35
2019-05-06T03:12:17.334Z,5.82
2019-05-06T03:14:19.895Z,3.75
2019-05-06T03:16:23.761Z,2.20
2019-05-06T03:18:25.144Z,4.85
2019-05-06T03:20:43.890Z,4.35
2019-05-06T03:22:45.428Z,1.97
2019-05-06T03:24:48.455Z,4.43
2019-05-06T03:26:53.392Z,3.47
2019-05-06T03:28:54.411Z,6.37
2019-05-06T03:30:57.307Z,3.97
2019-05-06T03:33:31.207Z,3.55
2019-05-06T03:35:24.768Z,4.68
2019-05-06T03:37:07.267Z,2.72
2019-05-06T03:39:08.055Z,3.87
2019-05-06T03:41:13.653Z,6.90
2019-05-06T03:43:15.912Z,4.50
2019-05-06T03:45:16.421Z,3.33
2019-05-06T03:47:36.905Z,2.90
2019-05-06T03:49:39.464Z,3.10
2019-05-06T03:51:42.943Z,2.80
2019-05-06T03:53:44.666Z,4.95
2019-05-06T03:55:47.339Z,2.37
2019-05-06T03:57:50.129Z,4.47
2019-05-06T03:59:53.482Z,2.47
2019-05-06T04:01:56.042Z,5.37
2019-05-06T04:03:58.604Z,3.20
2019-05-06T04:06:04.205Z,3.77
2019-05-06T04:08:04.229Z,3.07
2019-05-06T04:10:06.863Z,5.27
2019-05-06T04:12:09.526Z,9.17
2019-05-06T04:14:13.967Z,3.17
2019-05-06T04:16:30.336Z,3.87
2019-05-06T04:18:33.904Z,6.47
2019-05-06T04:20:43.557Z,4.10
2019-05-06T04:22:46.192Z,3.40
2019-05-06T04:24:53.865Z,4.12
2019-05-06T04:27:03.091Z,8.63
2019-05-06T04:29:04.195Z,3.83
2019-05-06T04:31:06.599Z,4.10
2019-05-06T04:33:12.818Z,3.92
2019-05-06T04:35:13.576Z,3.25
2019-05-06T04:37:15.271Z,3.65
2019-05-06T04:39:17.945Z,6.32
2019-05-06T04:41:23.054Z,3.92
2019-05-06T04:43:26.902Z,5.47
2019-05-06T04:45:25.773Z,8.18
2019-05-06T04:47:29.112Z,5.40
2019-05-06T04:49:33.021Z,12.55
2019-05-06T04:51:36.816Z,3.72
2019-05-06T04:53:37.257Z,6.90
2019-05-06T04:55:43.333Z,2.97
2019-05-06T04:57:44.057Z,6.60
2019-05-06T04:59:46.019Z,5.53
2019-05-06T05:01:48.557Z,3.55
2019-05-06T05:03:53.828Z,3.85
2019-05-06T05:05:55.397Z,8.20
2019-05-06T05:07:57.928Z,4.12
2019-05-06T05:10:03.244Z,3.53
2019-05-06T05:12:03.044Z,5.77
2019-05-06T05:14:07.567Z,5.53
2019-05-06T05:16:12.715Z,4.87
2019-05-06T05:18:13.479Z,6.70
2019-05-06T05:20:16.031Z,5.30
2019-05-06T05:22:18.615Z,6.83
2019-05-06T05:24:23.325Z,7.17
2019-05-06T05:26:24.391Z,4.37
2019-05-06T05:28:27.063Z,7.90
2019-05-06T05:30:32.691Z,4.00
2019-05-06T05:32:33.545Z,4.28
2019-05-06T05:34:40.229Z,4.43
2019-05-06T05:36:38.795Z,4.78
2019-05-06T05:38:42.841Z,4.75
2019-05-06T05:40:44.031Z,5.60
2019-05-06T05:42:46.594Z,11.85
2019-05-06T05:44:49.143Z,6.93
2019-05-06T05:46:52.351Z,3.83
2019-05-06T05:49:02.756Z,6.05
2019-05-06T05:51:03.996Z,10.27
2019-05-06T05:53:06.644Z,9.50
2019-05-06T05:55:09.208Z,5.10
2019-05-06T05:57:12.594Z,4.97
2019-05-06T05:59:15.202Z,7.47
2019-05-06T06:01:17.751Z,5.78
2019-05-06T06:03:22.067Z,11.02
2019-05-06T06:05:23.040Z,8.90
2019-05-06T06:07:26.351Z,10.57
2019-05-06T06:09:28.907Z,6.62
2019-05-06T06:11:33.518Z,9.35
2019-05-06T06:13:36.097Z,11.88
2019-05-06T06:15:43.235Z,7.90
2019-05-06T06:17:52.063Z,8.30
2019-05-06T06:19:59.887Z,7.40
2019-05-06T06:22:02.799Z,5.67
2019-05-06T06:24:06.472Z,7.20
2019-05-06T06:26:12.129Z,6.50
2019-05-06T06:28:14.559Z,9.52
2019-05-06T06:30:17.126Z,11.25
2019-05-06T06:32:20.147Z,8.43
2019-05-06T06:34:23.520Z,9.93
2019-05-06T06:36:26.075Z,8.57
2019-05-06T06:38:34.428Z,6.35
2019-05-06T06:40:37.055Z,5.10
2019-05-06T06:42:39.602Z,6.90
2019-05-06T06:44:42.425Z,7.35
2019-05-06T06:46:44.886Z,7.57
2019-05-06T06:48:47.440Z,11.98
2019-05-06T06:50:51.783Z,9.45
2019-05-06T06:52:52.695Z,16.10
2019-05-06T06:54:55.154Z,5.62
2019-05-06T06:57:08.486Z,6.68
2019-05-06T06:59:22.197Z,9.68
2019-05-06T07:01:23.832Z,5.90
2019-05-06T07:03:27.171Z,10.35
2019-05-06T07:05:35.479Z,5.75
2019-05-06T07:07:43.427Z,8.37
2019-05-06T07:09:41.934Z,10.00
2019-05-06T07:11:43.993Z,7.43
2019-05-06T07:13:55.005Z,15.43
2019-05-06T07:15:57.572Z,13.27
2019-05-06T07:18:02.290Z,11.67
2019-05-06T07:20:05.574Z,7.80
2019-05-06T07:22:08.916Z,12.00
2019-05-06T07:24:13.091Z,9.80
2019-05-06T07:26:14.818Z,7.00
2019-05-06T07:28:17.383Z,9.15
2019-05-06T07:30:20.043Z,8.40
2019-05-06T07:32:23.171Z,7.37
2019-05-06T07:34:25.936Z,10.35
2019-05-06T07:36:28.591Z,12.85
2019-05-06T07:38:32.658Z,6.05
2019-05-06T07:40:33.715Z,6.62
2019-05-06T07:42:43.047Z,8.60
2019-05-06T07:44:47.105Z,9.50
2019-05-06T07:47:03.044Z,16.00
2019-05-06T07:49:03.464Z,6.40
2019-05-06T07:51:05.639Z,17.53
2019-05-06T07:53:08.263Z,7.10
2019-05-06T07:55:12.025Z,6.75
2019-05-06T07:57:13.967Z,9.43
2019-05-06T07:59:17.318Z,15.63
2019-05-06T08:01:25.801Z,6.07
2019-05-06T08:03:23.227Z,6.53
2019-05-06T08:05:26.584Z,4.73
2019-05-06T08:07:29.156Z,10.60
2019-05-06T08:09:32.580Z,6.97
2019-05-06T08:11:34.283Z,11.23
2019-05-06T08:13:37.716Z,5.03
2019-05-06T08:15:42.066Z,4.18
2019-05-06T08:17:43.628Z,4.62
2019-05-06T08:19:46.188Z,7.40
2019-05-06T08:21:48.767Z,8.73
2019-05-06T08:23:52.363Z,10.80
2019-05-06T08:26:08.877Z,10.70
2019-05-06T08:27:56.950Z,5.50
2019-05-06T08:30:01.867Z,2.57
2019-05-06T08:32:02.931Z,5.30
2019-05-06T08:34:04.711Z,8.43
2019-05-06T08:36:11.588Z,6.70
2019-05-06T08:38:12.187Z,7.53
2019-05-06T08:40:13.170Z,7.20
2019-05-06T08:42:15.727Z,5.67
2019-05-06T08:44:18.308Z,4.50
2019-05-06T08:46:23.244Z,11.33
2019-05-06T08:48:23.467Z,4.47
2019-05-06T08:50:27.726Z,4.45
2019-05-06T08:52:36.116Z,5.90
2019-05-06T08:54:38.669Z,6.50
2019-05-06T08:56:42.675Z,2.30
2019-05-06T08:58:44.615Z,6.47
2019-05-06T09:00:49.981Z,5.90
2019-05-06T09:02:53.003Z,6.50
2019-05-06T09:04:55.103Z,4.10
2019-05-06T09:06:57.751Z,9.30
2019-05-06T09:09:02.476Z,10.10
2019-05-06T09:11:03.645Z,9.27
2019-05-06T09:13:06.243Z,9.13
2019-05-06T09:15:08.799Z,3.00
2019-05-06T09:17:12.067Z,2.67
2019-05-06T09:19:13.940Z,3.27
2019-05-06T09:21:16.494Z,4.00
2019-05-06T09:23:19.141Z,3.93
2019-05-06T09:25:23.161Z,5.13
2019-05-06T09:27:30.167Z,4.37
2019-05-06T09:29:32.841Z,3.27
2019-05-06T09:31:45.128Z,2.23
2019-05-06T09:34:02.542Z,3.57
2019-05-06T09:36:03.406Z,2.60
2019-05-06T09:38:05.434Z,5.10
2019-05-06T09:40:08.767Z,3.90
2019-05-06T09:42:12.863Z,8.03
2019-05-06T09:44:13.903Z,3.10
2019-05-06T09:46:16.882Z,4.47
2019-05-06T09:48:19.588Z,1.73
2019-05-06T09:50:36.313Z,2.07
2019-05-06T09:52:38.865Z,5.90
2019-05-06T09:54:53.523Z,11.30
2019-05-06T09:56:53.909Z,4.63
2019-05-06T09:58:57.256Z,6.70
2019-05-06T10:00:59.843Z,6.97
2019-05-06T10:03:03.759Z,3.03
2019-05-06T10:05:05.782Z,1.97
2019-05-06T10:07:08.320Z,2.90
2019-05-06T10:09:15.295Z,2.40
2019-05-06T10:11:13.526Z,1.73
2019-05-06T10:13:16.066Z,6.60
2019-05-06T10:15:18.631Z,4.47
2019-05-06T10:17:21.205Z,3.67
2019-05-06T10:19:23.772Z,5.40
2019-05-06T10:21:26.355Z,7.90
2019-05-06T10:23:28.911Z,2.70
2019-05-06T10:25:31.468Z,4.83
2019-05-06T10:27:34.041Z,3.30
2019-05-06T10:29:36.618Z,4.80
2019-05-06T10:31:43.061Z,2.30
2019-05-06T10:33:49.736Z,3.03
2019-05-06T10:35:53.096Z,4.70
2019-05-06T10:37:56.899Z,5.50
2019-05-06T10:40:04.910Z,14.70
2019-05-06T10:42:13.118Z,3.30
2019-05-06T10:44:34.671Z,3.23
2019-05-06T10:46:37.225Z,5.97
2019-05-06T10:48:42.276Z,2.67
2019-05-06T10:50:43.167Z,3.07
2019-05-06T10:53:04.600Z,7.70
2019-05-06T10:55:07.139Z,2.00
2019-05-06T10:57:12.541Z,6.27
2019-05-06T10:59:13.704Z,8.17
2019-05-06T11:01:18.098Z,3.00
2019-05-06T11:03:22.650Z,4.90
2019-05-06T11:05:24.549Z,4.30
2019-05-06T11:07:31.377Z,4.33
2019-05-06T11:09:33.135Z,3.40
2019-05-06T11:11:38.398Z,5.93
2019-05-06T11:13:35.599Z,6.63
2019-05-06T11:15:38.267Z,4.30
2019-05-06T11:17:43.411Z,3.53
2019-05-06T11:19:44.189Z,2.53
2019-05-06T11:21:46.866Z,5.17
2019-05-06T11:23:49.403Z,1.70
2019-05-06T11:25:52.648Z,3.60
2019-05-06T11:27:54.544Z,2.13
2019-05-06T11:29:57.911Z,2.63
2019-05-06T11:32:02.416Z,3.63
2019-05-06T11:34:12.493Z,3.33
2019-05-06T11:36:15.289Z,5.07
2019-05-06T11:38:16.030Z,2.67
2019-05-06T11:40:18.599Z,3.90
2019-05-06T11:42:31.795Z,5.83
2019-05-06T11:44:24.167Z,6.57
2019-05-06T11:46:26.278Z,3.43
2019-05-06T11:48:28.874Z,3.67
2019-05-06T11:50:33.284Z,3.57
2019-05-06T11:52:34.638Z,4.20
2019-05-06T11:54:36.557Z,3.00
2019-05-06T11:56:48.759Z,2.10
2019-05-06T11:58:43.014Z,7.40
2019-05-06T12:00:45.046Z,2.23
2019-05-06T12:02:48.730Z,3.40
2019-05-06T12:04:52.554Z,2.30
2019-05-06T12:07:10.009Z,4.70
2019-05-06T12:08:55.300Z,1.80
2019-05-06T12:10:57.876Z,1.40
2019-05-06T12:13:02.622Z,1.27
2019-05-06T12:15:04.234Z,2.63
2019-05-06T12:17:05.801Z,2.65
2019-05-06T12:19:08.359Z,9.73
2019-05-06T12:21:18.119Z,5.40
2019-05-06T12:23:15.587Z,5.97
2019-05-06T12:25:16.834Z,1.70
2019-05-06T12:27:25.131Z,2.53
2019-05-06T12:29:28.444Z,1.10
2019-05-06T12:31:32.884Z,2.40
2019-05-06T12:33:33.659Z,1.53
2019-05-06T12:35:36.976Z,1.40
2019-05-06T12:37:39.600Z,2.27
2019-05-06T12:39:43.154Z,2.20
2019-05-06T12:41:48.369Z,2.80
2019-05-06T12:43:50.964Z,4.40
2019-05-06T12:45:59.164Z,1.90
2019-05-06T12:48:03.034Z,2.83
2019-05-06T12:50:04.303Z,3.20
2019-05-06T12:52:06.866Z,2.17
2019-05-06T12:54:09.439Z,2.23
2019-05-06T12:56:12.420Z,6.13
2019-05-06T12:58:14.651Z,6.23
2019-05-06T13:00:17.983Z,3.67
2019-05-06T13:02:20.564Z,1.93
2019-05-06T13:04:44.491Z,1.37
2019-05-06T13:06:26.489Z,2.60
2019-05-06T13:08:49.853Z,1.70
2019-05-06T13:10:33.535Z,5.13
2019-05-06T13:12:35.068Z,1.30
2019-05-06T13:14:37.648Z,4.20
2019-05-06T13:16:42.330Z,2.40
2019-05-06T13:18:47.327Z,3.67
2019-05-06T13:20:50.255Z,4.27
2019-05-06T13:23:09.605Z,5.40
2019-05-06T13:25:06.907Z,7.50
2019-05-06T13:27:09.457Z,2.30
2019-05-06T13:29:13.041Z,5.37
2019-05-06T13:31:20.852Z,2.67
2019-05-06T13:33:23.755Z,2.63
2019-05-06T13:35:26.243Z,4.33
2019-05-06T13:37:28.929Z,4.23
2019-05-06T13:39:32.998Z,2.23
2019-05-06T13:41:34.792Z,1.43
2019-05-06T13:43:39.973Z,2.87
2019-05-06T13:45:45.399Z,5.03
2019-05-06T13:48:03.819Z,2.50
2019-05-06T13:50:05.420Z,1.73
2019-05-06T13:52:07.993Z,1.90
2019-05-06T13:54:13.625Z,5.13
2019-05-06T13:56:13.119Z,2.20
2019-05-06T13:58:16.455Z,2.47
2019-05-06T14:00:18.999Z,1.93
2019-05-06T14:02:40.337Z,2.83
2019-05-06T14:04:44.272Z,5.03
2019-05-06T14:06:46.280Z,1.47
2019-05-06T14:08:48.834Z,4.07
2019-05-06T14:10:57.521Z,1.97
2019-05-06T14:12:54.722Z,2.70
2019-05-06T14:14:57.281Z,2.43
2019-05-06T14:17:00.847Z,2.13
2019-05-06T14:19:04.182Z,3.37
2019-05-06T14:21:06.750Z,4.90
2019-05-06T14:23:09.431Z,4.17
2019-05-06T14:25:16.481Z,4.10
2019-05-06T14:27:22.030Z,2.43
2019-05-06T14:29:39.035Z,1.70
2019-05-06T14:31:43.667Z,2.57
2019-05-06T14:33:45.013Z,1.73
2019-05-06T14:35:47.567Z,2.07
2019-05-06T14:37:52.876Z,2.00
2019-05-06T14:39:59.132Z,2.10
2019-05-06T14:41:57.020Z,2.23
2019-05-06T14:43:59.567Z,2.97
2019-05-06T14:46:02.120Z,2.10
2019-05-06T14:48:04.666Z,2.23
2019-05-06T14:50:07.244Z,1.93
2019-05-06T14:52:09.799Z,2.80
2019-05-06T14:54:14.780Z,3.17
2019-05-06T14:56:17.695Z,1.97
2019-05-06T14:58:22.830Z,2.20
2019-05-06T15:00:23.659Z,2.80
2019-05-06T15:02:27.178Z,2.53
2019-05-06T15:04:28.884Z,2.27
2019-05-06T15:06:33.069Z,1.93
2019-05-06T15:08:34.138Z,3.47
2019-05-06T15:10:37.375Z,4.20
2019-05-06T15:12:42.457Z,1.87
2019-05-06T15:14:43.824Z,3.73
2019-05-06T15:16:47.149Z,2.77
2019-05-06T15:18:49.844Z,2.60
2019-05-06T15:20:53.170Z,7.60
2019-05-06T15:22:54.947Z,1.47
2019-05-06T15:24:58.715Z,2.30
2019-05-06T15:27:02.686Z,1.60
2019-05-06T15:29:03.884Z,1.53
2019-05-06T15:31:12.431Z,3.08
2019-05-06T15:33:14.790Z,5.53
2019-05-06T15:35:36.012Z,1.63
2019-05-06T15:37:53.633Z,3.57
2019-05-06T15:39:56.021Z,3.40
2019-05-06T15:41:58.699Z,2.80
2019-05-06T15:44:03.049Z,2.13
2019-05-06T15:46:04.685Z,2.40
2019-05-06T15:48:07.293Z,2.13
2019-05-06T15:50:09.823Z,6.03
2019-05-06T15:52:12.609Z,1.93
2019-05-06T15:54:16.525Z,1.77
2019-05-06T15:56:19.075Z,2.20
2019-05-06T15:58:22.859Z,1.50
2019-05-06T16:00:24.196Z,1.77
2019-05-06T16:02:26.837Z,5.07
2019-05-06T16:04:29.400Z,3.07
2019-05-06T16:06:33.130Z,2.83
2019-05-06T16:08:34.695Z,4.03
2019-05-06T16:10:51.263Z,2.30
2019-05-06T16:12:39.649Z,1.10
2019-05-06T16:14:42.528Z,2.50
2019-05-06T16:16:44.777Z,1.60
2019-05-06T16:18:47.377Z,1.30
2019-05-06T16:20:49.946Z,3.60
2019-05-06T16:22:52.487Z,1.87
2019-05-06T16:24:56.445Z,1.83
2019-05-06T16:26:59.727Z,2.43
2019-05-06T16:29:02.442Z,1.70
2019-05-06T16:31:04.891Z,3.87
2019-05-06T16:33:07.439Z,1.73
2019-05-06T16:35:11.927Z,3.33
2019-05-06T16:37:12.827Z,1.63
2019-05-06T16:39:15.447Z,1.73
2019-05-06T16:41:18.794Z,2.10
2019-05-06T16:43:22.307Z,1.83
2019-05-06T16:45:24.852Z,1.50
2019-05-06T16:47:33.057Z,1.90
2019-05-06T16:49:35.607Z,2.60
2019-05-06T16:51:38.600Z,2.00
2019-05-06T16:53:42.959Z,4.73
2019-05-06T16:55:55.048Z,2.47
2019-05-06T16:57:52.953Z,6.93
2019-05-06T16:59:55.500Z,3.67
2019-05-06T17:01:58.847Z,3.93
2019-05-06T17:04:03.164Z,2.20
2019-05-06T17:06:15.430Z,2.97
2019-05-06T17:08:17.989Z,2.33
2019-05-06T17:10:22.735Z,11.63
2019-05-06T17:12:23.999Z,8.20
2019-05-06T17:14:26.576Z,10.33
2019-05-06T17:16:29.180Z,4.90
2019-05-06T17:18:33.271Z,4.97
2019-05-06T17:20:35.896Z,6.30
2019-05-06T17:22:38.484Z,3.80
2019-05-06T17:24:42.196Z,3.27
2019-05-06T17:26:44.343Z,3.63
2019-05-06T17:28:51.919Z,2.13
2019-05-06T17:30:53.680Z,2.37
2019-05-06T17:33:12.702Z,3.43
2019-05-06T17:35:15.999Z,2.00
2019-05-06T17:37:24.324Z,5.07
2019-05-06T17:39:27.664Z,2.10
2019-05-06T17:41:42.517Z,2.80
2019-05-06T17:43:37.574Z,5.53
2019-05-06T17:45:38.826Z,2.37
2019-05-06T17:47:42.171Z,10.03
2019-05-06T17:49:44.739Z,2.43
2019-05-06T17:52:07.013Z,7.47
2019-05-06T17:54:12.195Z,2.50
2019-05-06T17:56:12.943Z,5.32
2019-05-06T17:58:15.496Z,8.27
2019-05-06T18:00:18.071Z,5.77
2019-05-06T18:02:22.676Z,7.47
2019-05-06T18:04:23.183Z,5.00
2019-05-06T18:06:25.795Z,5.30
2019-05-06T18:08:28.354Z,4.50
2019-05-06T18:10:33.314Z,5.27
2019-05-06T18:12:33.482Z,2.87
2019-05-06T18:14:36.046Z,5.43
2019-05-06T18:16:39.395Z,7.33
2019-05-06T18:18:41.940Z,5.80
2019-05-06T18:20:44.496Z,5.37
2019-05-06T18:22:47.444Z,2.57
2019-05-06T18:24:50.002Z,2.40
2019-05-06T18:26:52.962Z,2.07
2019-05-06T18:28:55.140Z,1.60
2019-05-06T18:30:57.727Z,2.30
2019-05-06T18:33:02.178Z,7.90
2019-05-06T18:35:03.624Z,2.73
2019-05-06T18:37:06.940Z,2.63
2019-05-06T18:39:09.500Z,3.77
2019-05-06T18:41:12.175Z,5.27
2019-05-06T18:43:15.475Z,9.43
2019-05-06T18:45:18.852Z,6.22
2019-05-06T18:47:22.216Z,5.90
2019-05-06T18:49:24.764Z,2.30
2019-05-06T18:51:27.362Z,3.97
2019-05-06T18:53:29.917Z,3.37
2019-05-06T18:55:33.153Z,2.50
2019-05-06T18:57:35.171Z,2.53
2019-05-06T18:59:37.719Z,2.30
2019-05-06T19:01:40.270Z,3.07
2019-05-06T19:03:43.526Z,7.33
2019-05-06T19:05:46.858Z,2.60
2019-05-06T19:07:49.413Z,2.60
2019-05-06T19:09:55.451Z,4.87
2019-05-06T19:11:58.764Z,2.40
2019-05-06T19:14:02.144Z,2.07
2019-05-06T19:16:03.904Z,3.10
2019-05-06T19:18:06.475Z,2.47
2019-05-06T19:20:09.818Z,2.73
2019-05-06T19:22:14.035Z,3.50
2019-05-06T19:24:14.927Z,2.20
2019-05-06T19:26:17.504Z,3.17
2019-05-06T19:28:22.011Z,2.53
2019-05-06T19:30:23.371Z,2.47
2019-05-06T19:32:26.037Z,2.23
2019-05-06T19:34:28.677Z,4.20
2019-05-06T19:36:34.162Z,2.80
2019-05-06T19:38:33.888Z,3.70
2019-05-06T19:40:36.339Z,4.70
2019-05-06T19:42:47.184Z,2.70
2019-05-06T19:44:43.110Z,6.90
2019-05-06T19:46:44.784Z,2.50
2019-05-06T19:48:48.208Z,5.00
2019-05-06T19:50:52.235Z,3.20
2019-05-06T19:52:54.135Z,4.00
2019-05-06T19:54:56.722Z,3.40
2019-05-06T19:56:59.282Z,2.57
2019-05-06T19:59:02.169Z,3.10
2019-05-06T20:01:05.164Z,3.20
2019-05-06T20:03:08.035Z,3.03
2019-05-06T20:05:12.069Z,4.57
2019-05-06T20:07:18.747Z,8.10
2019-05-06T20:09:26.917Z,4.80
2019-05-06T20:11:30.259Z,5.10
2019-05-06T20:13:33.727Z,7.10
2019-05-06T20:15:36.783Z,6.10
2019-05-06T20:17:42.388Z,4.10
2019-05-06T20:19:42.732Z,4.70
2019-05-06T20:21:45.210Z,4.93
2019-05-06T20:23:47.835Z,11.53
2019-05-06T20:25:51.930Z,8.37
2019-05-06T20:27:52.975Z,12.63
2019-05-06T20:29:55.641Z,12.87
2019-05-06T20:31:59.002Z,13.05
2019-05-06T20:34:02.252Z,11.43
2019-05-06T20:36:04.283Z,8.73
2019-05-06T20:38:06.868Z,7.63
2019-05-06T20:40:11.653Z,11.83
2019-05-06T20:42:14.108Z,8.60
2019-05-06T20:44:16.866Z,10.60
2019-05-06T20:46:19.435Z,8.70
2019-05-06T20:48:23.556Z,6.27
2019-05-06T20:50:24.667Z,4.00
2019-05-06T20:52:30.310Z,10.97
2019-05-06T20:54:29.879Z,5.57
2019-05-06T20:56:32.718Z,6.95
2019-05-06T20:58:36.071Z,5.72
2019-05-06T21:00:38.643Z,8.30
2019-05-06T21:02:42.551Z,6.93
2019-05-06T21:04:43.901Z,5.03
2019-05-06T21:06:46.474Z,8.53
2019-05-06T21:08:49.247Z,8.55
2019-05-06T21:10:52.858Z,7.40
2019-05-06T21:12:54.391Z,5.80
2019-05-06T21:14:57.047Z,10.07
2019-05-06T21:17:02.338Z,9.82
2019-05-06T21:19:03.291Z,8.30
2019-05-06T21:21:05.783Z,4.40
2019-05-06T21:23:08.938Z,5.12
2019-05-06T21:25:12.985Z,8.07
2019-05-06T21:27:14.136Z,4.45
2019-05-06T21:29:17.083Z,8.50
2019-05-06T21:31:20.411Z,14.47
2019-05-06T21:33:23.067Z,22.33
2019-05-06T21:35:25.624Z,28.50
2019-05-06T21:37:28.396Z,21.55
2019-05-06T21:39:32.781Z,23.92
2019-05-06T21:41:34.660Z,20.80
2019-05-06T21:43:48.910Z,16.48
2019-05-06T21:45:42.419Z,10.82
2019-05-06T21:47:46.408Z,14.52
2019-05-06T21:49:46.460Z,14.48
2019-05-06T21:51:49.158Z,5.55
2019-05-06T21:53:51.728Z,4.53
2019-05-06T21:55:54.300Z,7.00
2019-05-06T21:57:56.861Z,7.53
2019-05-06T21:59:59.452Z,6.45
2019-05-06T22:02:02.291Z,3.70
2019-05-06T22:04:05.660Z,4.70
2019-05-06T22:06:08.252Z,6.05
2019-05-06T22:08:12.671Z,6.93
2019-05-06T22:10:13.525Z,4.35
2019-05-06T22:12:16.071Z,4.12
2019-05-06T22:14:19.244Z,5.30
2019-05-06T22:16:22.998Z,8.35
2019-05-06T22:18:24.395Z,8.48
2019-05-06T22:20:26.951Z,11.15
2019-05-06T22:22:30.043Z,10.23
2019-05-06T22:24:45.707Z,8.93
2019-05-06T22:26:49.059Z,7.85
2019-05-06T22:28:52.488Z,8.50
2019-05-06T22:30:54.213Z,13.52
2019-05-06T22:32:56.780Z,8.57
2019-05-06T22:34:59.451Z,15.77
2019-05-06T22:37:03.340Z,9.52
2019-05-06T22:39:04.848Z,11.38
2019-05-06T22:41:08.550Z,10.77
2019-05-06T22:43:12.352Z,15.33
2019-05-06T22:45:14.659Z,12.43
2019-05-06T22:47:19.029Z,10.65
2019-05-06T22:49:22.641Z,13.45
2019-05-06T22:51:24.907Z,10.35
2019-05-06T22:53:28.250Z,9.33
2019-05-06T22:55:32.471Z,4.65
2019-05-06T22:57:33.355Z,8.70
2019-05-06T22:59:36.024Z,6.68
2019-05-06T23:01:54.689Z,3.92
2019-05-06T23:03:56.959Z,4.12
2019-05-06T23:05:59.520Z,4.70
2019-05-06T23:08:02.764Z,3.90
2019-05-06T23:10:05.452Z,4.65
2019-05-06T23:12:08.110Z,4.87
2019-05-06T23:14:12.472Z,5.37
2019-05-06T23:16:13.244Z,4.35
2019-05-06T23:18:15.955Z,4.55
2019-05-06T23:20:18.498Z,4.28
2019-05-06T23:22:22.746Z,9.05
2019-05-06T23:24:23.674Z,5.28
2019-05-06T23:26:26.215Z,4.55
2019-05-06T23:28:28.768Z,3.95
2019-05-06T23:30:33.263Z,6.75
2019-05-06T23:32:33.909Z,6.20
2019-05-06T23:34:36.484Z,3.40
2019-05-06T23:37:03.802Z,4.20
2019-05-06T23:39:19.062Z,3.97
2019-05-06T23:41:33.519Z,6.20
2019-05-06T23:43:48.963Z,3.60
2019-05-06T23:46:03.479Z,3.50
2019-05-06T23:48:17.767Z,5.60
2019-05-06T23:50:32.141Z,8.25
2019-05-06T23:52:46.503Z,5.97
2019-05-06T23:55:03.138Z,8.15
2019-05-06T23:57:03.120Z,3.60
2019-05-06T23:59:06.439Z,5.47
